createdAt,value
2018-01-21T00:00:04.014Z,16.53
2018-01-21T00:02:31.440Z,13.70
2018-01-21T00:04:58.895Z,19.33
2018-01-21T00:07:26.355Z,25.33
2018-01-21T00:09:53.811Z,17.47
2018-01-21T00:12:21.240Z,19.30
2018-01-21T00:14:49.036Z,17.00
2018-01-21T00:17:16.456Z,14.47
2018-01-21T00:19:43.940Z,15.63
2018-01-21T00:22:11.384Z,19.33
2018-01-21T00:24:38.812Z,29.00
2018-01-21T00:27:07.008Z,20.27
2018-01-21T00:29:34.488Z,16.87
2018-01-21T00:32:01.950Z,18.70
2018-01-21T00:34:29.388Z,19.27
2018-01-21T00:36:56.823Z,14.73
2018-01-21T00:39:25.038Z,12.40
2018-01-21T00:41:52.467Z,20.13
2018-01-21T00:44:19.904Z,12.30
2018-01-21T00:46:48.119Z,12.60
2018-01-21T00:49:15.547Z,14.80
2018-01-21T00:51:42.996Z,13.60
2018-01-21T00:54:11.217Z,13.13
2018-01-21T00:56:38.642Z,16.47
2018-01-21T00:59:06.081Z,12.00
2018-01-21T01:01:34.280Z,13.63
2018-01-21T01:04:01.699Z,16.50
2018-01-21T01:06:29.216Z,17.67
2018-01-21T01:08:56.667Z,16.80
2018-01-21T01:11:24.108Z,17.47
2018-01-21T01:13:51.548Z,14.53
2018-01-21T01:16:19.736Z,20.87
2018-01-21T01:18:47.172Z,23.57
2018-01-21T01:21:15.696Z,18.63
2018-01-21T01:23:43.128Z,21.40
2018-01-21T01:26:10.576Z,24.30
2018-01-21T01:28:39.091Z,26.60
2018-01-21T01:31:06.526Z,24.17
2018-01-21T01:33:34.008Z,35.10
2018-01-21T01:36:01.452Z,30.57
2018-01-21T01:38:28.879Z,30.97
2018-01-21T01:40:57.091Z,31.60
2018-01-21T01:43:24.839Z,29.77
2018-01-21T01:45:52.268Z,28.27
2018-01-21T01:48:20.484Z,37.27
2018-01-21T01:50:47.922Z,29.83
2018-01-21T01:53:15.351Z,41.03
2018-01-21T01:55:43.576Z,30.07
2018-01-21T01:58:11.344Z,29.77
2018-01-21T02:00:38.800Z,30.10
2018-01-21T02:03:06.238Z,30.77
2018-01-21T02:05:33.680Z,24.60
2018-01-21T02:08:01.110Z,24.07
2018-01-21T02:10:28.540Z,25.70
2018-01-21T02:12:55.976Z,25.43
2018-01-21T02:15:23.437Z,32.43
2018-01-21T02:17:50.904Z,21.63
2018-01-21T02:20:18.664Z,22.23
2018-01-21T02:22:46.087Z,19.43
2018-01-21T02:25:13.507Z,21.43
2018-01-21T02:27:41.027Z,24.13
2018-01-21T02:30:08.497Z,18.47
2018-01-21T02:32:35.949Z,21.10
2018-01-21T02:35:03.375Z,15.33
2018-01-21T02:37:30.863Z,13.17
2018-01-21T02:39:58.288Z,21.37
2018-01-21T02:42:25.983Z,17.37
2018-01-21T02:44:53.408Z,18.27
2018-01-21T02:47:20.876Z,21.80
2018-01-21T02:49:48.362Z,18.20
2018-01-21T02:52:15.792Z,17.03
2018-01-21T02:54:43.220Z,14.90
2018-01-21T02:57:11.419Z,14.80
2018-01-21T02:59:38.898Z,13.07
2018-01-21T03:02:06.357Z,8.83
2018-01-21T03:04:34.218Z,11.20
2018-01-21T03:07:01.687Z,16.90
2018-01-21T03:09:29.136Z,10.50
2018-01-21T03:11:56.695Z,14.27
2018-01-21T03:14:24.159Z,12.10
2018-01-21T03:16:51.584Z,13.00
2018-01-21T03:19:19.280Z,10.50
2018-01-21T03:21:46.757Z,13.07
2018-01-21T03:24:14.163Z,18.30
2018-01-21T03:26:42.767Z,12.07
2018-01-21T03:29:10.200Z,11.87
2018-01-21T03:31:37.683Z,10.73
2018-01-21T03:34:05.132Z,14.90
2018-01-21T03:36:32.567Z,10.47
2018-01-21T03:38:59.992Z,15.50
2018-01-21T03:41:27.720Z,11.43
2018-01-21T03:43:55.176Z,15.40
2018-01-21T03:46:22.607Z,6.60
2018-01-21T03:48:50.039Z,10.97
2018-01-21T03:51:18.271Z,5.37
2018-01-21T03:53:45.698Z,8.83
2018-01-21T03:56:13.488Z,9.00
2018-01-21T03:58:40.936Z,12.07
2018-01-21T04:01:08.367Z,10.80
2018-01-21T04:03:36.563Z,8.77
2018-01-21T04:06:03.984Z,8.43
2018-01-21T04:08:32.204Z,14.67
2018-01-21T04:10:59.642Z,11.33
2018-01-21T04:13:27.117Z,9.53
2018-01-21T04:15:54.550Z,11.17
2018-01-21T04:18:22.235Z,8.13
2018-01-21T04:20:49.660Z,7.80
2018-01-21T04:23:17.861Z,8.67
2018-01-21T04:25:45.296Z,14.70
2018-01-21T04:28:12.724Z,19.47
2018-01-21T04:30:40.150Z,11.07
2018-01-21T04:33:07.899Z,9.00
2018-01-21T04:35:35.360Z,6.20
2018-01-21T04:38:02.836Z,12.53
2018-01-21T04:40:30.372Z,13.07
2018-01-21T04:42:57.832Z,6.67
2018-01-21T04:45:25.287Z,10.57
2018-01-21T04:47:52.747Z,11.17
2018-01-21T04:50:20.203Z,12.27
2018-01-21T04:52:47.627Z,7.70
2018-01-21T04:55:16.140Z,10.50
2018-01-21T04:57:43.592Z,10.33
2018-01-21T05:00:11.055Z,10.60
2018-01-21T05:02:38.488Z,7.80
2018-01-21T05:05:05.976Z,14.97
2018-01-21T05:07:33.432Z,7.47
2018-01-21T05:10:00.889Z,11.67
2018-01-21T05:12:28.339Z,8.73
2018-01-21T05:14:55.759Z,7.37
2018-01-21T05:17:24.187Z,9.43
2018-01-21T05:19:51.631Z,7.47
2018-01-21T05:22:19.084Z,5.67
2018-01-21T05:24:46.504Z,11.13
2018-01-21T05:27:14.693Z,3.80
2018-01-21T05:29:42.120Z,5.67
2018-01-21T05:32:09.867Z,11.73
2018-01-21T05:34:37.297Z,8.03
2018-01-21T05:37:04.731Z,5.63
2018-01-21T05:39:32.173Z,8.40
2018-01-21T05:42:00.384Z,10.97
2018-01-21T05:44:27.837Z,9.17
2018-01-21T05:46:55.483Z,10.07
2018-01-21T05:49:22.908Z,12.57
2018-01-21T05:51:50.328Z,9.80
2018-01-21T05:54:17.770Z,7.07
2018-01-21T05:56:45.254Z,14.07
2018-01-21T05:59:12.681Z,12.63
2018-01-21T06:01:40.136Z,13.77
2018-01-21T06:04:07.558Z,14.33
2018-01-21T06:06:35.782Z,12.13
2018-01-21T06:09:03.216Z,12.03
2018-01-21T06:11:30.636Z,8.10
2018-01-21T06:13:58.152Z,10.10
2018-01-21T06:16:25.920Z,13.13
2018-01-21T06:18:53.340Z,11.10
2018-01-21T06:21:20.776Z,9.33
2018-01-21T06:23:49.004Z,8.43
2018-01-21T06:26:16.470Z,13.40
2018-01-21T06:28:43.895Z,11.73
2018-01-21T06:31:11.373Z,10.03
2018-01-21T06:33:38.811Z,10.17
2018-01-21T06:36:06.287Z,12.33
2018-01-21T06:38:33.740Z,12.10
2018-01-21T06:41:01.172Z,11.10
2018-01-21T06:43:28.602Z,16.20
2018-01-21T06:45:56.040Z,5.27
2018-01-21T06:48:23.568Z,5.87
2018-01-21T06:50:50.988Z,9.77
2018-01-21T06:53:19.196Z,8.47
2018-01-21T06:55:46.629Z,13.50
2018-01-21T06:58:14.844Z,10.97
2018-01-21T07:00:42.292Z,9.30
2018-01-21T07:03:09.747Z,14.30
2018-01-21T07:05:37.172Z,8.47
2018-01-21T07:08:04.610Z,9.97
2018-01-21T07:10:32.084Z,5.53
2018-01-21T07:12:59.458Z,9.63
2018-01-21T07:15:27.236Z,12.93
2018-01-21T07:17:54.721Z,13.93
2018-01-21T07:20:22.152Z,10.90
2018-01-21T07:22:49.612Z,14.37
2018-01-21T07:25:17.064Z,10.40
2018-01-21T07:27:44.488Z,9.23
2018-01-21T07:30:12.936Z,12.17
2018-01-21T07:32:40.370Z,14.67
2018-01-21T07:35:07.788Z,11.60
2018-01-21T07:37:35.219Z,6.77
2018-01-21T07:40:02.662Z,9.80
2018-01-21T07:42:32.757Z,8.73
2018-01-21T07:45:00.507Z,15.10
2018-01-21T07:47:27.968Z,13.97
2018-01-21T07:49:55.394Z,10.33
2018-01-21T07:52:23.589Z,8.77
2018-01-21T07:54:51.060Z,15.43
2018-01-21T07:57:18.485Z,7.53
2018-01-21T07:59:46.689Z,11.93
2018-01-21T08:02:14.149Z,12.97
2018-01-21T08:04:41.604Z,7.23
2018-01-21T08:07:09.063Z,10.10
2018-01-21T08:09:36.515Z,9.30
2018-01-21T08:12:03.970Z,7.37
2018-01-21T08:14:31.480Z,10.43
2018-01-21T08:16:58.863Z,6.40
2018-01-21T08:19:26.284Z,6.67
2018-01-21T08:21:54.520Z,9.10
2018-01-21T08:24:21.940Z,7.27
2018-01-21T08:26:50.148Z,19.17
2018-01-21T08:29:17.587Z,7.27
2018-01-21T08:31:45.069Z,13.57
2018-01-21T08:34:18.251Z,15.10
2018-01-21T08:36:51.353Z,7.63
2018-01-21T08:39:24.853Z,11.13
2018-01-21T08:42:07.152Z,13.30
2018-01-21T08:44:34.604Z,10.70
2018-01-21T08:47:02.031Z,3.83
2018-01-21T08:49:29.456Z,8.20
2018-01-21T08:51:56.896Z,9.40
2018-01-21T08:54:25.084Z,5.57
2018-01-21T08:56:52.564Z,6.33
2018-01-21T08:59:20.020Z,8.57
2018-01-21T09:01:47.448Z,10.20
2018-01-21T09:04:15.656Z,9.43
2018-01-21T09:06:43.403Z,6.23
2018-01-21T09:09:10.876Z,8.63
2018-01-21T09:11:38.292Z,9.60
2018-01-21T09:14:06.603Z,6.17
2018-01-21T09:16:34.004Z,9.43
2018-01-21T09:19:01.530Z,7.73
2018-01-21T09:21:29.464Z,10.53
2018-01-21T09:23:56.897Z,9.10
2018-01-21T09:26:24.404Z,9.87
2018-01-21T09:28:51.867Z,11.13
2018-01-21T09:31:19.317Z,9.27
2018-01-21T09:33:46.724Z,6.93
2018-01-21T09:36:14.164Z,9.73
2018-01-21T09:38:41.692Z,9.20
2018-01-21T09:41:09.144Z,9.03
2018-01-21T09:43:36.560Z,13.60
2018-01-21T09:46:05.586Z,12.60
2018-01-21T09:48:33.014Z,12.27
2018-01-21T09:51:01.223Z,11.77
2018-01-21T09:53:28.690Z,6.37
2018-01-21T09:55:56.115Z,9.23
2018-01-21T09:58:23.809Z,7.80
2018-01-21T10:00:51.232Z,7.47
2018-01-21T10:03:18.719Z,9.60
2018-01-21T10:05:46.152Z,6.73
2018-01-21T10:08:13.580Z,8.60
2018-01-21T10:10:41.009Z,5.83
2018-01-21T10:13:08.752Z,4.87
2018-01-21T10:15:36.214Z,3.87
2018-01-21T10:18:03.636Z,6.73
2018-01-21T10:20:31.835Z,7.67
2018-01-21T10:22:59.251Z,9.47
2018-01-21T10:25:27.473Z,5.67
2018-01-21T10:27:54.928Z,6.60
2018-01-21T10:30:22.388Z,8.60
2018-01-21T10:32:49.863Z,8.20
2018-01-21T10:35:17.280Z,6.10
2018-01-21T10:37:44.763Z,12.13
2018-01-21T10:40:12.190Z,5.97
2018-01-21T10:42:39.624Z,10.33
2018-01-21T10:45:07.848Z,4.27
2018-01-21T10:47:35.308Z,6.47
2018-01-21T10:50:02.744Z,8.43
2018-01-21T10:52:30.176Z,7.63
2018-01-21T10:54:58.392Z,8.40
2018-01-21T10:57:25.852Z,8.87
2018-01-21T10:59:53.275Z,5.53
2018-01-21T11:02:20.793Z,6.30
2018-01-21T11:04:48.231Z,5.27
2018-01-21T11:07:15.680Z,8.57
2018-01-21T11:09:43.101Z,8.50
2018-01-21T11:12:11.304Z,6.03
2018-01-21T11:14:38.735Z,4.90
2018-01-21T11:17:06.919Z,8.70
2018-01-21T11:19:34.359Z,6.23
2018-01-21T11:22:02.548Z,7.93
2018-01-21T11:24:29.967Z,6.57
2018-01-21T11:26:57.484Z,8.43
2018-01-21T11:29:24.944Z,10.67
2018-01-21T11:31:53.313Z,8.00
2018-01-21T11:34:20.756Z,5.77
2018-01-21T11:36:48.245Z,10.40
2018-01-21T11:39:15.705Z,6.80
2018-01-21T11:41:43.468Z,8.93
2018-01-21T11:44:10.905Z,11.83
2018-01-21T11:46:38.313Z,5.60
2018-01-21T11:49:05.834Z,6.33
2018-01-21T11:51:33.265Z,4.13
2018-01-21T11:54:00.769Z,7.03
2018-01-21T11:56:28.209Z,6.03
2018-01-21T11:58:55.656Z,13.03
2018-01-21T12:01:23.118Z,7.47
2018-01-21T12:03:50.576Z,6.10
2018-01-21T12:06:18.008Z,6.00
2018-01-21T12:08:45.489Z,5.73
2018-01-21T12:11:12.946Z,13.37
2018-01-21T12:13:40.371Z,5.40
2018-01-21T12:16:07.797Z,6.43
2018-01-21T12:18:35.258Z,8.57
2018-01-21T12:21:02.773Z,6.80
2018-01-21T12:23:30.200Z,9.97
2018-01-21T12:25:58.400Z,5.83
2018-01-21T12:28:25.860Z,4.87
2018-01-21T12:30:53.330Z,9.07
2018-01-21T12:33:20.769Z,6.10
2018-01-21T12:35:48.232Z,8.17
2018-01-21T12:38:15.688Z,7.10
2018-01-21T12:40:43.120Z,9.13
2018-01-21T12:43:10.600Z,7.37
2018-01-21T12:45:38.020Z,6.70
2018-01-21T12:48:06.233Z,5.43
2018-01-21T12:50:33.661Z,7.33
2018-01-21T12:53:01.854Z,9.33
2018-01-21T12:55:29.316Z,12.60
2018-01-21T12:57:56.732Z,9.10
2018-01-21T13:00:24.956Z,10.37
2018-01-21T13:02:52.392Z,9.63
2018-01-21T13:05:19.820Z,8.27
2018-01-21T13:07:48.017Z,7.87
2018-01-21T13:10:15.496Z,5.77
2018-01-21T13:12:42.960Z,13.37
2018-01-21T13:15:10.409Z,7.20
2018-01-21T13:17:37.868Z,5.23
2018-01-21T13:20:05.296Z,6.87
2018-01-21T13:22:32.784Z,9.17
2018-01-21T13:25:00.240Z,7.10
2018-01-21T13:27:27.743Z,16.33
2018-01-21T13:29:55.152Z,6.77
2018-01-21T13:32:22.612Z,9.83
2018-01-21T13:34:50.040Z,13.03
2018-01-21T13:37:17.524Z,7.27
2018-01-21T13:39:44.984Z,7.13
2018-01-21T13:42:12.422Z,11.23
2018-01-21T13:44:39.896Z,7.43
2018-01-21T13:47:07.332Z,5.17
2018-01-21T13:49:34.848Z,6.03
2018-01-21T13:52:02.372Z,5.13
2018-01-21T13:54:29.816Z,13.00
2018-01-21T13:56:57.228Z,10.17
2018-01-21T13:59:25.416Z,9.17
2018-01-21T14:01:53.616Z,5.53
2018-01-21T14:04:21.044Z,7.90
2018-01-21T14:06:49.241Z,6.57
2018-01-21T14:09:16.722Z,6.43
2018-01-21T14:11:44.139Z,7.13
2018-01-21T14:14:12.358Z,6.97
2018-01-21T14:16:39.812Z,11.47
2018-01-21T14:19:07.262Z,5.87
2018-01-21T14:21:34.735Z,7.17
2018-01-21T14:24:02.493Z,18.27
2018-01-21T14:26:29.949Z,13.50
2018-01-21T14:28:57.376Z,17.57
2018-01-21T14:31:24.860Z,8.17
2018-01-21T14:33:52.316Z,4.13
2018-01-21T14:36:19.805Z,6.47
2018-01-21T14:38:47.240Z,17.97
2018-01-21T14:41:14.704Z,7.83
2018-01-21T14:43:42.207Z,9.77
2018-01-21T14:46:10.414Z,10.47
2018-01-21T14:48:37.876Z,7.97
2018-01-21T14:51:05.336Z,13.50
2018-01-21T14:53:32.791Z,8.93
2018-01-21T14:56:00.252Z,8.33
2018-01-21T14:58:27.708Z,6.30
2018-01-21T15:00:55.157Z,4.47
2018-01-21T15:03:22.581Z,9.10
2018-01-21T15:05:50.770Z,9.83
2018-01-21T15:08:18.456Z,8.37
2018-01-21T15:10:45.884Z,8.97
2018-01-21T15:13:13.310Z,8.50
2018-01-21T15:15:40.836Z,8.10
2018-01-21T15:18:08.284Z,18.13
2018-01-21T15:20:35.712Z,12.00
2018-01-21T15:23:03.535Z,10.47
2018-01-21T15:25:30.959Z,12.80
2018-01-21T15:27:58.420Z,5.10
2018-01-21T15:30:25.893Z,8.43
2018-01-21T15:32:53.282Z,12.73
2018-01-21T15:35:20.704Z,10.20
2018-01-21T15:37:48.148Z,8.27
2018-01-21T15:40:15.580Z,6.50
2018-01-21T15:42:43.072Z,11.90
2018-01-21T15:45:10.511Z,13.37
2018-01-21T15:47:37.972Z,10.37
2018-01-21T15:50:05.408Z,8.87
2018-01-21T15:52:32.866Z,9.50
2018-01-21T15:55:00.292Z,11.10
2018-01-21T15:57:27.804Z,7.77
2018-01-21T15:59:56.980Z,12.00
2018-01-21T16:02:24.459Z,12.43
2018-01-21T16:04:51.885Z,9.73
2018-01-21T16:07:20.403Z,11.73
2018-01-21T16:09:47.824Z,11.93
2018-01-21T16:12:15.302Z,13.77
2018-01-21T16:14:42.691Z,15.50
2018-01-21T16:17:10.180Z,15.37
2018-01-21T16:19:37.637Z,14.07
2018-01-21T16:22:05.865Z,15.47
2018-01-21T16:24:33.328Z,12.40
2018-01-21T16:27:00.760Z,10.17
2018-01-21T16:29:28.206Z,15.03
2018-01-21T16:31:55.636Z,13.37
2018-01-21T16:34:23.065Z,13.50
2018-01-21T16:36:50.511Z,16.37
2018-01-21T16:39:17.919Z,17.70
2018-01-21T16:41:46.111Z,11.60
2018-01-21T16:44:13.556Z,12.80
2018-01-21T16:46:41.050Z,14.80
2018-01-21T16:49:08.511Z,27.80
2018-01-21T16:51:35.956Z,14.87
2018-01-21T16:54:03.380Z,18.03
2018-01-21T16:56:31.564Z,16.83
2018-01-21T16:58:59.048Z,12.37
2018-01-21T17:01:26.507Z,12.27
2018-01-21T17:03:53.978Z,16.77
2018-01-21T17:06:21.421Z,22.20
2018-01-21T17:08:48.841Z,27.40
2018-01-21T17:11:17.028Z,14.23
2018-01-21T17:13:44.461Z,14.50
2018-01-21T17:16:12.668Z,15.53
2018-01-21T17:18:40.136Z,16.67
2018-01-21T17:21:07.586Z,15.47
2018-01-21T17:23:35.004Z,17.10
2018-01-21T17:26:03.200Z,16.73
2018-01-21T17:28:30.683Z,13.00
2018-01-21T17:30:58.140Z,14.53
2018-01-21T17:33:25.590Z,17.80
2018-01-21T17:35:53.255Z,21.07
2018-01-21T17:38:20.710Z,18.63
2018-01-21T17:40:48.173Z,20.07
2018-01-21T17:43:15.618Z,24.27
2018-01-21T17:45:43.044Z,24.73
2018-01-21T17:48:11.261Z,15.90
2018-01-21T17:50:38.740Z,15.43
2018-01-21T17:53:06.168Z,23.53
2018-01-21T17:55:33.632Z,18.77
2018-01-21T17:58:01.092Z,23.67
2018-01-21T18:00:28.524Z,20.27
2018-01-21T18:02:56.012Z,20.77
2018-01-21T18:05:23.457Z,22.57
2018-01-21T18:07:50.884Z,19.70
2018-01-21T18:10:19.101Z,21.90
2018-01-21T18:12:46.874Z,18.33
2018-01-21T18:15:14.292Z,28.57
2018-01-21T18:17:41.774Z,24.20
2018-01-21T18:20:09.537Z,22.27
2018-01-21T18:22:36.997Z,17.83
2018-01-21T18:25:04.453Z,24.57
2018-01-21T18:27:31.901Z,25.47
2018-01-21T18:29:59.341Z,21.33
2018-01-21T18:32:27.525Z,26.97
2018-01-21T18:34:54.996Z,22.60
2018-01-21T18:37:22.476Z,27.50
2018-01-21T18:39:49.912Z,28.67
2018-01-21T18:42:17.359Z,26.67
2018-01-21T18:44:44.829Z,24.10
2018-01-21T18:47:12.256Z,27.93
2018-01-21T18:49:39.698Z,26.70
2018-01-21T18:52:07.920Z,23.07
2018-01-21T18:54:35.340Z,24.20
2018-01-21T18:57:03.040Z,25.10
2018-01-21T18:59:30.467Z,30.83
2018-01-21T19:01:57.901Z,30.77
2018-01-21T19:04:26.113Z,28.13
2018-01-21T19:06:53.544Z,35.93
2018-01-21T19:09:20.976Z,35.63
2018-01-21T19:11:48.496Z,34.97
2018-01-21T19:14:15.928Z,24.93
2018-01-21T19:16:43.354Z,33.33
2018-01-21T19:19:11.571Z,34.30
2018-01-21T19:21:39.042Z,37.37
2018-01-21T19:24:06.498Z,30.67
2018-01-21T19:26:33.924Z,33.53
2018-01-21T19:29:01.369Z,34.30
2018-01-21T19:31:29.564Z,36.33
2018-01-21T19:33:57.009Z,33.80
2018-01-21T19:36:24.488Z,43.50
2018-01-21T19:38:54.933Z,40.90
2018-01-21T19:41:38.174Z,35.40
2018-01-21T19:44:21.265Z,35.57
2018-01-21T19:46:48.704Z,32.20
2018-01-21T19:49:16.184Z,33.17
2018-01-21T19:51:43.638Z,41.73
2018-01-21T19:54:11.194Z,35.80
2018-01-21T19:56:39.474Z,35.73
2018-01-21T19:59:06.963Z,41.93
2018-01-21T20:01:34.400Z,33.03
2018-01-21T20:04:01.848Z,40.83
2018-01-21T20:06:29.303Z,30.43
2018-01-21T20:08:56.968Z,40.97
2018-01-21T20:11:24.406Z,33.30
2018-01-21T20:13:51.838Z,40.37
2018-01-21T20:16:20.056Z,31.50
2018-01-21T20:18:47.496Z,38.53
2018-01-21T20:21:14.995Z,44.30
2018-01-21T20:23:42.532Z,35.57
2018-01-21T20:26:09.968Z,39.83
2018-01-21T20:28:37.400Z,38.63
2018-01-21T20:31:05.637Z,33.30
2018-01-21T20:33:33.071Z,39.13
2018-01-21T20:36:00.496Z,40.23
2018-01-21T20:38:28.793Z,31.67
2018-01-21T20:40:56.216Z,35.07
2018-01-21T20:43:24.416Z,37.20
2018-01-21T20:45:52.112Z,36.93
2018-01-21T20:48:19.567Z,37.17
2018-01-21T20:50:47.046Z,40.20
2018-01-21T20:53:20.255Z,38.97
2018-01-21T20:55:47.775Z,44.97
2018-01-21T20:58:15.227Z,43.23
2018-01-21T21:00:42.689Z,36.87
2018-01-21T21:03:10.101Z,40.93
2018-01-21T21:05:38.305Z,41.77
2018-01-21T21:08:05.747Z,35.70
2018-01-21T21:10:33.242Z,40.30
2018-01-21T21:13:00.713Z,35.90
2018-01-21T21:15:28.448Z,40.50
2018-01-21T21:17:55.877Z,41.20
2018-01-21T21:20:23.376Z,39.40
2018-01-21T21:22:50.820Z,33.93
2018-01-21T21:25:18.274Z,34.73
2018-01-21T21:27:45.740Z,35.67
2018-01-21T21:30:13.187Z,37.70
2018-01-21T21:32:40.666Z,34.13
2018-01-21T21:35:08.096Z,28.43
2018-01-21T21:37:35.532Z,31.87
2018-01-21T21:40:03.731Z,23.77
2018-01-21T21:42:31.160Z,26.80
2018-01-21T21:44:59.422Z,27.23
2018-01-21T21:47:26.918Z,29.00
2018-01-21T21:49:54.361Z,24.80
2018-01-21T21:52:21.859Z,28.00
2018-01-21T21:54:49.312Z,28.67
2018-01-21T21:57:16.789Z,31.53
2018-01-21T21:59:44.524Z,33.43
2018-01-21T22:02:11.944Z,26.40
2018-01-21T22:04:40.148Z,32.47
2018-01-21T22:07:07.694Z,29.70
2018-01-21T22:09:35.891Z,27.20
2018-01-21T22:12:03.337Z,26.40
2018-01-21T22:14:30.764Z,26.33
2018-01-21T22:16:58.956Z,24.53
2018-01-21T22:19:26.383Z,26.73
2018-01-21T22:21:54.642Z,30.33
2018-01-21T22:24:22.188Z,32.63
2018-01-21T22:26:49.615Z,36.03
2018-01-21T22:29:17.060Z,28.37
2018-01-21T22:31:44.492Z,32.87
2018-01-21T22:34:12.692Z,30.47
2018-01-21T22:36:40.172Z,25.30
2018-01-21T22:39:07.628Z,28.33
2018-01-21T22:41:35.051Z,28.17
2018-01-21T22:44:02.510Z,26.90
2018-01-21T22:46:29.915Z,25.07
2018-01-21T22:48:57.348Z,24.60
2018-01-21T22:51:24.816Z,27.67
2018-01-21T22:53:52.244Z,25.53
2018-01-21T22:56:19.668Z,25.33
2018-01-21T22:58:47.254Z,19.57
2018-01-21T23:01:14.721Z,25.43
2018-01-21T23:03:42.173Z,20.63
2018-01-21T23:06:09.642Z,29.00
2018-01-21T23:08:37.068Z,28.47
2018-01-21T23:11:04.544Z,27.43
2018-01-21T23:13:31.994Z,29.13
2018-01-21T23:15:59.412Z,28.77
2018-01-21T23:18:27.645Z,31.40
2018-01-21T23:20:59.604Z,33.43
2018-01-21T23:23:27.060Z,33.27
2018-01-21T23:25:54.501Z,35.13
2018-01-21T23:28:21.939Z,40.27
2018-01-21T23:30:49.373Z,31.87
2018-01-21T23:33:16.888Z,34.87
2018-01-21T23:35:44.331Z,41.47
2018-01-21T23:38:11.765Z,45.63
2018-01-21T23:40:39.192Z,35.73
2018-01-21T23:43:06.632Z,41.60
2018-01-21T23:45:34.176Z,34.33
2018-01-21T23:48:01.600Z,34.63
2018-01-21T23:50:29.046Z,37.33
2018-01-21T23:52:57.291Z,37.87
2018-01-21T23:55:24.718Z,30.43
2018-01-21T23:57:52.162Z,25.60
